sensor_id;sensor_type;location;lat;lon;timestamp;pressure;altitude;pressure_sealevel;temperature;humidity
77381;BME280;66439;50.106;10.996;2023-02-28T00:00:21;99785.18;;;-0.80;64.49
77381;BME280;66439;50.106;10.996;2023-02-28T00:02:45;99782.13;;;-0.75;64.42
77381;BME280;66439;50.106;10.996;2023-02-28T00:04:49;99780.74;;;-0.75;64.04
77381;BME280;66439;50.106;10.996;2023-02-28T00:06:55;99784.51;;;-0.74;63.97
77381;BME280;66439;50.106;10.996;2023-02-28T00:08:58;99785.72;;;-0.74;63.74
77381;BME280;66439;50.106;10.996;2023-02-28T00:11:03;99785.09;;;-0.75;63.89
77381;BME280;66439;50.106;10.996;2023-02-28T00:13:07;99781.66;;;-0.72;63.85
77381;BME280;66439;50.106;10.996;2023-02-28T00:15:11;99777.89;;;-0.70;63.95
77381;BME280;66439;50.106;10.996;2023-02-28T00:17:15;99771.75;;;-0.70;63.86
77381;BME280;66439;50.106;10.996;2023-02-28T00:19:24;99772.36;;;-0.71;63.81
77381;BME280;66439;50.106;10.996;2023-02-28T00:21:30;99767.82;;;-0.74;63.97
77381;BME280;66439;50.106;10.996;2023-02-28T00:23:35;99767.73;;;-0.76;64.02
77381;BME280;66439;50.106;10.996;2023-02-28T00:25:41;99762.11;;;-0.78;63.99
77381;BME280;66439;50.106;10.996;2023-02-28T00:27:45;99765.73;;;-0.80;64.05
77381;BME280;66439;50.106;10.996;2023-02-28T00:29:48;99766.53;;;-0.82;64.26
77381;BME280;66439;50.106;10.996;2023-02-28T00:31:50;99768.58;;;-0.85;64.19
77381;BME280;66439;50.106;10.996;2023-02-28T00:33:54;99766.88;;;-0.85;64.26
77381;BME280;66439;50.106;10.996;2023-02-28T00:36:02;99762.80;;;-0.81;64.41
77381;BME280;66439;50.106;10.996;2023-02-28T00:38:06;99762.66;;;-0.76;64.30
77381;BME280;66439;50.106;10.996;2023-02-28T00:40:10;99757.17;;;-0.74;64.06
77381;BME280;66439;50.106;10.996;2023-02-28T00:42:15;99759.20;;;-0.73;63.70
77381;BME280;66439;50.106;10.996;2023-02-28T00:44:18;99763.70;;;-0.69;63.85
77381;BME280;66439;50.106;10.996;2023-02-28T00:46:24;99759.94;;;-0.67;63.80
77381;BME280;66439;50.106;10.996;2023-02-28T00:48:28;99765.05;;;-0.65;63.36
77381;BME280;66439;50.106;10.996;2023-02-28T00:50:33;99765.59;;;-0.65;63.26
77381;BME280;66439;50.106;10.996;2023-02-28T00:52:36;99771.57;;;-0.66;63.29
77381;BME280;66439;50.106;10.996;2023-02-28T00:54:39;99772.77;;;-0.66;63.33
77381;BME280;66439;50.106;10.996;2023-02-28T00:56:43;99767.27;;;-0.64;63.39
77381;BME280;66439;50.106;10.996;2023-02-28T00:58:46;99765.66;;;-0.64;63.56
77381;BME280;66439;50.106;10.996;2023-02-28T01:00:52;99763.45;;;-0.62;63.47
77381;BME280;66439;50.106;10.996;2023-02-28T01:02:56;99768.23;;;-0.63;63.24
77381;BME280;66439;50.106;10.996;2023-02-28T01:05:00;99763.11;;;-0.65;63.18
77381;BME280;66439;50.106;10.996;2023-02-28T01:07:05;99764.73;;;-0.69;63.17
77381;BME280;66439;50.106;10.996;2023-02-28T01:09:11;99767.52;;;-0.72;63.36
77381;BME280;66439;50.106;10.996;2023-02-28T01:11:16;99765.39;;;-0.75;63.19
77381;BME280;66439;50.106;10.996;2023-02-28T01:13:20;99765.84;;;-0.76;63.29
77381;BME280;66439;50.106;10.996;2023-02-28T01:15:24;99761.48;;;-0.76;63.40
77381;BME280;66439;50.106;10.996;2023-02-28T01:17:27;99760.96;;;-0.76;63.59
77381;BME280;66439;50.106;10.996;2023-02-28T01:19:30;99759.94;;;-0.77;63.59
77381;BME280;66439;50.106;10.996;2023-02-28T01:21:33;99761.27;;;-0.78;63.58
77381;BME280;66439;50.106;10.996;2023-02-28T01:23:38;99759.04;;;-0.82;63.24
77381;BME280;66439;50.106;10.996;2023-02-28T01:25:42;99759.08;;;-0.86;63.52
77381;BME280;66439;50.106;10.996;2023-02-28T01:27:45;99760.73;;;-0.87;63.57
77381;BME280;66439;50.106;10.996;2023-02-28T01:29:50;99755.41;;;-0.89;63.66
77381;BME280;66439;50.106;10.996;2023-02-28T01:31:53;99756.98;;;-0.92;63.70
77381;BME280;66439;50.106;10.996;2023-02-28T01:33:56;99753.80;;;-0.94;63.62
77381;BME280;66439;50.106;10.996;2023-02-28T01:36:11;99755.30;;;-0.96;63.67
77381;BME280;66439;50.106;10.996;2023-02-28T01:38:14;99751.75;;;-0.98;63.69
77381;BME280;66439;50.106;10.996;2023-02-28T01:40:24;99748.58;;;-1.01;63.78
77381;BME280;66439;50.106;10.996;2023-02-28T01:42:27;99747.60;;;-1.02;63.79
77381;BME280;66439;50.106;10.996;2023-02-28T01:46:57;99746.36;;;-1.08;63.71
77381;BME280;66439;50.106;10.996;2023-02-28T01:49:07;99742.05;;;-1.09;63.82
77381;BME280;66439;50.106;10.996;2023-02-28T01:51:26;99739.91;;;-1.11;63.70
77381;BME280;66439;50.106;10.996;2023-02-28T01:53:34;99739.25;;;-1.11;64.20
77381;BME280;66439;50.106;10.996;2023-02-28T01:55:40;99736.84;;;-1.08;64.59
77381;BME280;66439;50.106;10.996;2023-02-28T01:57:51;99741.84;;;-1.01;64.58
77381;BME280;66439;50.106;10.996;2023-02-28T01:59:59;99735.00;;;-0.97;64.60
77381;BME280;66439;50.106;10.996;2023-02-28T02:02:03;99731.80;;;-0.96;64.14
77381;BME280;66439;50.106;10.996;2023-02-28T02:04:07;99727.04;;;-0.98;64.00
77381;BME280;66439;50.106;10.996;2023-02-28T02:06:10;99730.86;;;-0.98;64.23
77381;BME280;66439;50.106;10.996;2023-02-28T02:08:24;99726.23;;;-0.96;64.41
77381;BME280;66439;50.106;10.996;2023-02-28T02:10:44;99726.72;;;-0.98;63.83
77381;BME280;66439;50.106;10.996;2023-02-28T02:12:56;99719.42;;;-1.02;63.91
77381;BME280;66439;50.106;10.996;2023-02-28T02:15:22;99716.63;;;-1.01;64.38
77381;BME280;66439;50.106;10.996;2023-02-28T02:17:40;99715.78;;;-1.02;64.00
77381;BME280;66439;50.106;10.996;2023-02-28T02:22:33;99714.96;;;-1.00;64.30
77381;BME280;66439;50.106;10.996;2023-02-28T02:34:45;99703.04;;;-1.08;64.10
77381;BME280;66439;50.106;10.996;2023-02-28T02:37:02;99704.06;;;-1.07;64.03
77381;BME280;66439;50.106;10.996;2023-02-28T02:39:16;99707.39;;;-1.04;64.03
77381;BME280;66439;50.106;10.996;2023-02-28T02:41:30;99701.23;;;-1.03;64.02
77381;BME280;66439;50.106;10.996;2023-02-28T02:44:02;99704.84;;;-1.02;64.12
77381;BME280;66439;50.106;10.996;2023-02-28T02:46:14;99703.40;;;-1.02;63.92
77381;BME280;66439;50.106;10.996;2023-02-28T02:48:25;99703.92;;;-1.02;63.88
77381;BME280;66439;50.106;10.996;2023-02-28T02:50:57;99705.03;;;-1.03;63.75
77381;BME280;66439;50.106;10.996;2023-02-28T02:53:07;99705.27;;;-1.03;63.70
77381;BME280;66439;50.106;10.996;2023-02-28T02:55:12;99702.10;;;-1.06;63.71
77381;BME280;66439;50.106;10.996;2023-02-28T02:57:23;99702.86;;;-1.11;63.43
77381;BME280;66439;50.106;10.996;2023-02-28T02:59:29;99701.66;;;-1.14;63.41
77381;BME280;66439;50.106;10.996;2023-02-28T03:01:33;99707.64;;;-1.18;63.43
77381;BME280;66439;50.106;10.996;2023-02-28T03:03:38;99711.14;;;-1.22;63.49
77381;BME280;66439;50.106;10.996;2023-02-28T03:05:49;99706.72;;;-1.27;63.66
77381;BME280;66439;50.106;10.996;2023-02-28T03:07:52;99713.23;;;-1.28;63.77
77381;BME280;66439;50.106;10.996;2023-02-28T03:09:57;99712.65;;;-1.27;63.97
77381;BME280;66439;50.106;10.996;2023-02-28T03:12:01;99715.92;;;-1.27;64.09
77381;BME280;66439;50.106;10.996;2023-02-28T03:16:40;99711.74;;;-1.27;63.83
77381;BME280;66439;50.106;10.996;2023-02-28T03:23:56;99710.34;;;-1.11;64.09
77381;BME280;66439;50.106;10.996;2023-02-28T03:26:10;99712.00;;;-1.09;63.78
77381;BME280;66439;50.106;10.996;2023-02-28T03:28:44;99708.66;;;-1.09;63.61
77381;BME280;66439;50.106;10.996;2023-02-28T03:30:53;99706.23;;;-1.06;63.86
77381;BME280;66439;50.106;10.996;2023-02-28T03:33:09;99709.77;;;-1.07;63.47
77381;BME280;66439;50.106;10.996;2023-02-28T03:35:25;99709.73;;;-1.06;63.46
77381;BME280;66439;50.106;10.996;2023-02-28T03:37:31;99711.48;;;-1.06;63.54
77381;BME280;66439;50.106;10.996;2023-02-28T03:39:46;99706.98;;;-1.07;63.60
77381;BME280;66439;50.106;10.996;2023-02-28T03:41:58;99709.52;;;-1.08;63.31
77381;BME280;66439;50.106;10.996;2023-02-28T03:44:09;99713.07;;;-1.09;63.35
77381;BME280;66439;50.106;10.996;2023-02-28T03:46:21;99713.19;;;-1.12;63.32
77381;BME280;66439;50.106;10.996;2023-02-28T03:48:34;99713.74;;;-1.15;63.24
77381;BME280;66439;50.106;10.996;2023-02-28T03:50:43;99713.73;;;-1.22;63.24
77381;BME280;66439;50.106;10.996;2023-02-28T03:52:52;99715.27;;;-1.24;63.58
77381;BME280;66439;50.106;10.996;2023-02-28T03:55:10;99713.86;;;-1.27;63.38
77381;BME280;66439;50.106;10.996;2023-02-28T03:59:53;99712.67;;;-1.31;63.56
77381;BME280;66439;50.106;10.996;2023-02-28T04:01:59;99710.35;;;-1.33;63.79
77381;BME280;66439;50.106;10.996;2023-02-28T04:04:04;99715.28;;;-1.34;63.83
77381;BME280;66439;50.106;10.996;2023-02-28T04:06:14;99717.69;;;-1.37;63.62
77381;BME280;66439;50.106;10.996;2023-02-28T04:08:19;99714.60;;;-1.44;63.81
77381;BME280;66439;50.106;10.996;2023-02-28T04:10:22;99720.58;;;-1.49;63.73
77381;BME280;66439;50.106;10.996;2023-02-28T04:12:27;99723.64;;;-1.51;63.87
77381;BME280;66439;50.106;10.996;2023-02-28T04:14:32;99726.71;;;-1.53;64.04
77381;BME280;66439;50.106;10.996;2023-02-28T04:16:37;99729.92;;;-1.58;63.87
77381;BME280;66439;50.106;10.996;2023-02-28T04:18:42;99732.95;;;-1.62;63.83
77381;BME280;66439;50.106;10.996;2023-02-28T04:20:48;99731.45;;;-1.67;64.24
77381;BME280;66439;50.106;10.996;2023-02-28T04:22:51;99728.60;;;-1.69;64.31
77381;BME280;66439;50.106;10.996;2023-02-28T04:24:55;99729.67;;;-1.69;64.30
77381;BME280;66439;50.106;10.996;2023-02-28T04:26:58;99726.91;;;-1.70;64.32
77381;BME280;66439;50.106;10.996;2023-02-28T04:29:05;99731.63;;;-1.71;64.36
77381;BME280;66439;50.106;10.996;2023-02-28T04:31:08;99731.37;;;-1.68;64.54
77381;BME280;66439;50.106;10.996;2023-02-28T04:33:12;99733.44;;;-1.65;64.76
77381;BME280;66439;50.106;10.996;2023-02-28T04:35:16;99732.58;;;-1.62;64.62
77381;BME280;66439;50.106;10.996;2023-02-28T04:37:21;99730.48;;;-1.58;64.75
77381;BME280;66439;50.106;10.996;2023-02-28T04:39:34;99735.63;;;-1.54;64.73
77381;BME280;66439;50.106;10.996;2023-02-28T04:41:38;99738.65;;;-1.55;64.34
77381;BME280;66439;50.106;10.996;2023-02-28T04:43:41;99736.33;;;-1.60;63.96
77381;BME280;66439;50.106;10.996;2023-02-28T04:45:44;99739.98;;;-1.64;63.93
77381;BME280;66439;50.106;10.996;2023-02-28T04:47:47;99731.13;;;-1.67;64.21
77381;BME280;66439;50.106;10.996;2023-02-28T04:49:51;99734.30;;;-1.68;64.33
77381;BME280;66439;50.106;10.996;2023-02-28T04:51:54;99740.05;;;-1.65;64.70
77381;BME280;66439;50.106;10.996;2023-02-28T04:53:59;99736.16;;;-1.60;64.56
77381;BME280;66439;50.106;10.996;2023-02-28T04:56:02;99736.24;;;-1.56;64.25
77381;BME280;66439;50.106;10.996;2023-02-28T04:58:05;99730.35;;;-1.53;63.87
77381;BME280;66439;50.106;10.996;2023-02-28T05:00:11;99728.48;;;-1.50;64.06
77381;BME280;66439;50.106;10.996;2023-02-28T05:02:15;99727.52;;;-1.52;63.60
77381;BME280;66439;50.106;10.996;2023-02-28T05:04:18;99734.27;;;-1.51;63.81
77381;BME280;66439;50.106;10.996;2023-02-28T05:06:23;99737.67;;;-1.53;63.48
77381;BME280;66439;50.106;10.996;2023-02-28T05:08:26;99742.39;;;-1.54;63.70
77381;BME280;66439;50.106;10.996;2023-02-28T05:10:29;99739.20;;;-1.53;63.94
77381;BME280;66439;50.106;10.996;2023-02-28T05:12:32;99741.92;;;-1.51;63.77
77381;BME280;66439;50.106;10.996;2023-02-28T05:14:39;99739.29;;;-1.51;63.63
77381;BME280;66439;50.106;10.996;2023-02-28T05:16:43;99741.52;;;-1.50;63.82
77381;BME280;66439;50.106;10.996;2023-02-28T05:18:46;99744.87;;;-1.51;63.77
77381;BME280;66439;50.106;10.996;2023-02-28T05:20:49;99743.85;;;-1.52;63.93
77381;BME280;66439;50.106;10.996;2023-02-28T05:22:53;99746.89;;;-1.54;63.55
77381;BME280;66439;50.106;10.996;2023-02-28T05:24:56;99744.35;;;-1.58;63.48
77381;BME280;66439;50.106;10.996;2023-02-28T05:27:02;99746.77;;;-1.61;63.72
77381;BME280;66439;50.106;10.996;2023-02-28T05:29:06;99743.82;;;-1.64;63.68
77381;BME280;66439;50.106;10.996;2023-02-28T05:31:10;99744.86;;;-1.67;64.04
77381;BME280;66439;50.106;10.996;2023-02-28T05:33:14;99747.46;;;-1.71;64.02
77381;BME280;66439;50.106;10.996;2023-02-28T05:35:17;99744.84;;;-1.74;63.96
77381;BME280;66439;50.106;10.996;2023-02-28T05:37:20;99749.44;;;-1.75;64.29
77381;BME280;66439;50.106;10.996;2023-02-28T05:39:24;99750.91;;;-1.77;64.44
77381;BME280;66439;50.106;10.996;2023-02-28T05:41:27;99753.77;;;-1.79;64.22
77381;BME280;66439;50.106;10.996;2023-02-28T05:43:33;99753.69;;;-1.80;64.65
77381;BME280;66439;50.106;10.996;2023-02-28T05:45:39;99757.11;;;-1.83;64.63
77381;BME280;66439;50.106;10.996;2023-02-28T05:47:42;99761.64;;;-1.83;64.40
77381;BME280;66439;50.106;10.996;2023-02-28T05:49:45;99758.55;;;-1.83;64.66
77381;BME280;66439;50.106;10.996;2023-02-28T05:51:48;99762.94;;;-1.84;64.81
77381;BME280;66439;50.106;10.996;2023-02-28T05:53:51;99764.30;;;-1.84;64.78
77381;BME280;66439;50.106;10.996;2023-02-28T05:55:54;99768.15;;;-1.81;64.81
77381;BME280;66439;50.106;10.996;2023-02-28T05:57:57;99765.58;;;-1.75;65.26
77381;BME280;66439;50.106;10.996;2023-02-28T06:00:01;99764.67;;;-1.71;65.24
77381;BME280;66439;50.106;10.996;2023-02-28T06:02:15;99768.95;;;-1.66;64.95
77381;BME280;66439;50.106;10.996;2023-02-28T06:04:20;99768.00;;;-1.65;64.64
77381;BME280;66439;50.106;10.996;2023-02-28T06:06:34;99772.62;;;-1.70;64.42
77381;BME280;66439;50.106;10.996;2023-02-28T06:08:38;99776.77;;;-1.73;64.61
77381;BME280;66439;50.106;10.996;2023-02-28T06:10:42;99779.39;;;-1.73;64.41
77381;BME280;66439;50.106;10.996;2023-02-28T06:12:45;99776.17;;;-1.75;64.70
77381;BME280;66439;50.106;10.996;2023-02-28T06:14:48;99778.45;;;-1.76;64.75
77381;BME280;66439;50.106;10.996;2023-02-28T06:16:51;99781.59;;;-1.76;64.91
77381;BME280;66439;50.106;10.996;2023-02-28T06:18:56;99782.67;;;-1.76;64.52
77381;BME280;66439;50.106;10.996;2023-02-28T06:20:59;99784.81;;;-1.74;64.70
77381;BME280;66439;50.106;10.996;2023-02-28T06:23:03;99786.65;;;-1.73;64.69
77381;BME280;66439;50.106;10.996;2023-02-28T06:25:06;99788.48;;;-1.67;64.92
77381;BME280;66439;50.106;10.996;2023-02-28T06:27:09;99789.02;;;-1.64;64.76
77381;BME280;66439;50.106;10.996;2023-02-28T06:29:12;99789.98;;;-1.60;65.03
77381;BME280;66439;50.106;10.996;2023-02-28T06:31:20;99790.88;;;-1.54;64.86
77381;BME280;66439;50.106;10.996;2023-02-28T06:33:25;99793.46;;;-1.50;64.76
77381;BME280;66439;50.106;10.996;2023-02-28T06:35:30;99791.64;;;-1.48;64.68
77381;BME280;66439;50.106;10.996;2023-02-28T06:37:34;99793.85;;;-1.47;64.62
77381;BME280;66439;50.106;10.996;2023-02-28T06:39:37;99794.36;;;-1.47;64.74
77381;BME280;66439;50.106;10.996;2023-02-28T06:41:41;99794.66;;;-1.46;64.60
77381;BME280;66439;50.106;10.996;2023-02-28T06:43:57;99800.14;;;-1.44;64.38
77381;BME280;66439;50.106;10.996;2023-02-28T06:46:01;99802.11;;;-1.46;64.39
77381;BME280;66439;50.106;10.996;2023-02-28T06:48:04;99803.09;;;-1.48;64.44
77381;BME280;66439;50.106;10.996;2023-02-28T06:50:12;99806.91;;;-1.48;64.54
77381;BME280;66439;50.106;10.996;2023-02-28T06:52:15;99812.11;;;-1.48;64.66
77381;BME280;66439;50.106;10.996;2023-02-28T06:54:18;99812.27;;;-1.47;64.75
77381;BME280;66439;50.106;10.996;2023-02-28T06:56:21;99814.03;;;-1.48;64.52
77381;BME280;66439;50.106;10.996;2023-02-28T06:58:25;99813.45;;;-1.47;64.74
77381;BME280;66439;50.106;10.996;2023-02-28T07:00:28;99811.77;;;-1.48;64.88
77381;BME280;66439;50.106;10.996;2023-02-28T07:02:31;99816.14;;;-1.48;64.76
77381;BME280;66439;50.106;10.996;2023-02-28T07:04:37;99814.83;;;-1.46;64.85
77381;BME280;66439;50.106;10.996;2023-02-28T07:06:43;99815.35;;;-1.43;65.17
77381;BME280;66439;50.106;10.996;2023-02-28T07:08:45;99811.18;;;-1.40;65.13
77381;BME280;66439;50.106;10.996;2023-02-28T07:10:52;99812.27;;;-1.37;64.96
77381;BME280;66439;50.106;10.996;2023-02-28T07:12:54;99813.73;;;-1.35;64.96
77381;BME280;66439;50.106;10.996;2023-02-28T07:14:57;99814.04;;;-1.31;64.82
77381;BME280;66439;50.106;10.996;2023-02-28T07:17:00;99817.47;;;-1.27;64.95
77381;BME280;66439;50.106;10.996;2023-02-28T07:19:03;99814.89;;;-1.24;65.10
77381;BME280;66439;50.106;10.996;2023-02-28T07:21:09;99818.96;;;-1.22;65.14
77381;BME280;66439;50.106;10.996;2023-02-28T07:23:12;99823.21;;;-1.17;65.25
77381;BME280;66439;50.106;10.996;2023-02-28T07:25:14;99823.92;;;-1.11;65.15
77381;BME280;66439;50.106;10.996;2023-02-28T07:27:17;99822.33;;;-1.01;65.17
77381;BME280;66439;50.106;10.996;2023-02-28T07:29:28;99818.77;;;-0.89;65.07
77381;BME280;66439;50.106;10.996;2023-02-28T07:31:32;99823.29;;;-0.80;64.93
77381;BME280;66439;50.106;10.996;2023-02-28T07:33:36;99817.44;;;-0.71;65.04
77381;BME280;66439;50.106;10.996;2023-02-28T07:35:42;99819.08;;;-0.63;64.94
77381;BME280;66439;50.106;10.996;2023-02-28T07:37:45;99818.93;;;-0.58;65.05
77381;BME280;66439;50.106;10.996;2023-02-28T07:39:51;99819.37;;;-0.50;65.27
77381;BME280;66439;50.106;10.996;2023-02-28T07:41:54;99812.71;;;-0.43;65.07
77381;BME280;66439;50.106;10.996;2023-02-28T07:43:59;99812.71;;;-0.37;64.64
77381;BME280;66439;50.106;10.996;2023-02-28T07:46:09;99810.52;;;-0.35;63.97
77381;BME280;66439;50.106;10.996;2023-02-28T07:48:12;99808.31;;;-0.36;63.75
77381;BME280;66439;50.106;10.996;2023-02-28T07:50:15;99807.52;;;-0.34;63.92
77381;BME280;66439;50.106;10.996;2023-02-28T07:52:19;99807.38;;;-0.35;63.75
77381;BME280;66439;50.106;10.996;2023-02-28T07:54:21;99812.42;;;-0.32;63.67
77381;BME280;66439;50.106;10.996;2023-02-28T07:56:24;99812.10;;;-0.29;63.69
77381;BME280;66439;50.106;10.996;2023-02-28T07:58:28;99813.19;;;-0.27;63.42
77381;BME280;66439;50.106;10.996;2023-02-28T08:00:32;99815.59;;;-0.26;63.36
77381;BME280;66439;50.106;10.996;2023-02-28T08:02:35;99820.82;;;-0.23;63.53
77381;BME280;66439;50.106;10.996;2023-02-28T08:04:38;99814.42;;;-0.20;63.57
77381;BME280;66439;50.106;10.996;2023-02-28T08:06:41;99809.41;;;-0.21;63.28
77381;BME280;66439;50.106;10.996;2023-02-28T08:08:45;99813.27;;;-0.19;63.62
77381;BME280;66439;50.106;10.996;2023-02-28T08:10:48;99815.52;;;-0.16;63.59
77381;BME280;66439;50.106;10.996;2023-02-28T08:12:52;99812.42;;;-0.13;63.38
77381;BME280;66439;50.106;10.996;2023-02-28T08:14:55;99810.77;;;-0.12;63.18
77381;BME280;66439;50.106;10.996;2023-02-28T08:16:58;99807.06;;;-0.11;63.43
77381;BME280;66439;50.106;10.996;2023-02-28T08:19:01;99809.61;;;-0.10;63.70
77381;BME280;66439;50.106;10.996;2023-02-28T08:21:08;99805.81;;;-0.08;63.63
77381;BME280;66439;50.106;10.996;2023-02-28T08:23:12;99805.52;;;-0.05;63.43
77381;BME280;66439;50.106;10.996;2023-02-28T08:25:15;99802.55;;;0.01;63.39
77381;BME280;66439;50.106;10.996;2023-02-28T08:27:21;99802.23;;;0.06;63.15
77381;BME280;66439;50.106;10.996;2023-02-28T08:29:23;99798.77;;;0.12;63.19
77381;BME280;66439;50.106;10.996;2023-02-28T08:31:26;99800.66;;;0.18;63.05
77381;BME280;66439;50.106;10.996;2023-02-28T08:33:29;99798.76;;;0.21;62.75
77381;BME280;66439;50.106;10.996;2023-02-28T08:35:36;99796.96;;;0.25;62.57
77381;BME280;66439;50.106;10.996;2023-02-28T08:37:41;99796.66;;;0.30;62.30
77381;BME280;66439;50.106;10.996;2023-02-28T08:39:45;99795.41;;;0.36;62.13
77381;BME280;66439;50.106;10.996;2023-02-28T08:41:48;99794.71;;;0.42;61.87
77381;BME280;66439;50.106;10.996;2023-02-28T08:44:03;99795.09;;;0.47;61.76
77381;BME280;66439;50.106;10.996;2023-02-28T08:46:07;99793.26;;;0.52;61.02
77381;BME280;66439;50.106;10.996;2023-02-28T08:48:10;99794.52;;;0.54;60.98
77381;BME280;66439;50.106;10.996;2023-02-28T08:50:13;99796.89;;;0.58;60.41
77381;BME280;66439;50.106;10.996;2023-02-28T08:52:17;99792.42;;;0.63;60.55
77381;BME280;66439;50.106;10.996;2023-02-28T08:54:20;99792.94;;;0.68;60.44
77381;BME280;66439;50.106;10.996;2023-02-28T08:56:23;99796.15;;;0.73;59.84
77381;BME280;66439;50.106;10.996;2023-02-28T08:58:26;99794.95;;;0.76;59.20
77381;BME280;66439;50.106;10.996;2023-02-28T09:00:30;99794.50;;;0.77;59.21
77381;BME280;66439;50.106;10.996;2023-02-28T09:02:32;99794.02;;;0.82;59.32
77381;BME280;66439;50.106;10.996;2023-02-28T09:04:36;99787.06;;;0.87;59.18
77381;BME280;66439;50.106;10.996;2023-02-28T09:06:41;99785.74;;;0.92;58.64
77381;BME280;66439;50.106;10.996;2023-02-28T09:08:45;99785.23;;;0.94;58.06
77381;BME280;66439;50.106;10.996;2023-02-28T09:10:47;99788.45;;;0.96;57.49
77381;BME280;66439;50.106;10.996;2023-02-28T09:12:50;99791.89;;;1.00;57.84
77381;BME280;66439;50.106;10.996;2023-02-28T09:14:53;99782.36;;;1.07;58.05
77381;BME280;66439;50.106;10.996;2023-02-28T09:16:56;99781.39;;;1.14;58.02
77381;BME280;66439;50.106;10.996;2023-02-28T09:18:58;99778.58;;;1.20;57.74
77381;BME280;66439;50.106;10.996;2023-02-28T09:21:06;99779.39;;;1.24;57.42
77381;BME280;66439;50.106;10.996;2023-02-28T09:23:12;99778.19;;;1.29;56.35
77381;BME280;66439;50.106;10.996;2023-02-28T09:25:15;99782.52;;;1.32;56.49
77381;BME280;66439;50.106;10.996;2023-02-28T09:27:18;99783.73;;;1.37;55.82
77381;BME280;66439;50.106;10.996;2023-02-28T09:29:23;99779.72;;;1.40;54.37
77381;BME280;66439;50.106;10.996;2023-02-28T09:31:27;99776.43;;;1.42;53.99
77381;BME280;66439;50.106;10.996;2023-02-28T09:33:32;99779.05;;;1.48;54.81
77381;BME280;66439;50.106;10.996;2023-02-28T09:35:38;99777.48;;;1.54;53.63
77381;BME280;66439;50.106;10.996;2023-02-28T09:37:41;99777.45;;;1.59;53.64
77381;BME280;66439;50.106;10.996;2023-02-28T09:39:43;99775.27;;;1.63;52.83
77381;BME280;66439;50.106;10.996;2023-02-28T09:41:50;99782.08;;;1.69;53.14
77381;BME280;66439;50.106;10.996;2023-02-28T09:43:57;99782.54;;;1.75;53.24
77381;BME280;66439;50.106;10.996;2023-02-28T09:46:25;99785.09;;;1.81;53.13
77381;BME280;66439;50.106;10.996;2023-02-28T09:48:34;99783.13;;;1.87;51.92
77381;BME280;66439;50.106;10.996;2023-02-28T09:50:51;99781.09;;;1.88;51.00
77381;BME280;66439;50.106;10.996;2023-02-28T09:52:55;99784.54;;;1.92;51.25
77381;BME280;66439;50.106;10.996;2023-02-28T09:57:38;99785.75;;;2.00;51.53
77381;BME280;66439;50.106;10.996;2023-02-28T10:00:05;99786.70;;;2.05;51.37
77381;BME280;66439;50.106;10.996;2023-02-28T10:04:59;99782.69;;;2.17;51.37
77381;BME280;66439;50.106;10.996;2023-02-28T10:07:12;99784.41;;;2.23;51.22
77381;BME280;66439;50.106;10.996;2023-02-28T10:09:30;99787.79;;;2.27;50.97
77381;BME280;66439;50.106;10.996;2023-02-28T10:11:36;99788.13;;;2.32;51.21
77381;BME280;66439;50.106;10.996;2023-02-28T10:14:11;99787.44;;;2.37;51.13
77381;BME280;66439;50.106;10.996;2023-02-28T10:16:35;99785.73;;;2.39;50.68
77381;BME280;66439;50.106;10.996;2023-02-28T10:18:47;99788.30;;;2.40;50.92
77381;BME280;66439;50.106;10.996;2023-02-28T10:20:51;99787.10;;;2.42;50.90
77381;BME280;66439;50.106;10.996;2023-02-28T10:25:05;99786.29;;;2.44;50.46
77381;BME280;66439;50.106;10.996;2023-02-28T10:29:19;99787.19;;;2.47;50.14
77381;BME280;66439;50.106;10.996;2023-02-28T10:31:22;99785.89;;;2.48;50.32
77381;BME280;66439;50.106;10.996;2023-02-28T10:33:31;99784.96;;;2.51;50.33
77381;BME280;66439;50.106;10.996;2023-02-28T10:35:34;99792.48;;;2.51;49.77
77381;BME280;66439;50.106;10.996;2023-02-28T10:37:38;99792.15;;;2.53;49.97
77381;BME280;66439;50.106;10.996;2023-02-28T10:39:45;99790.66;;;2.54;49.39
77381;BME280;66439;50.106;10.996;2023-02-28T10:41:49;99787.23;;;2.56;49.81
77381;BME280;66439;50.106;10.996;2023-02-28T10:44:22;99790.95;;;2.60;50.03
77381;BME280;66439;50.106;10.996;2023-02-28T10:46:29;99789.38;;;2.65;49.87
77381;BME280;66439;50.106;10.996;2023-02-28T10:52:54;99785.92;;;2.72;49.40
77381;BME280;66439;50.106;10.996;2023-02-28T10:55:16;99783.92;;;2.76;49.65
77381;BME280;66439;50.106;10.996;2023-02-28T10:57:23;99785.55;;;2.78;48.92
77381;BME280;66439;50.106;10.996;2023-02-28T10:59:30;99787.61;;;2.78;49.09
77381;BME280;66439;50.106;10.996;2023-02-28T11:01:46;99782.63;;;2.82;49.40
77381;BME280;66439;50.106;10.996;2023-02-28T11:03:52;99782.45;;;2.87;49.37
77381;BME280;66439;50.106;10.996;2023-02-28T11:05:55;99782.39;;;2.93;49.58
77381;BME280;66439;50.106;10.996;2023-02-28T11:08:14;99776.50;;;3.00;49.27
77381;BME280;66439;50.106;10.996;2023-02-28T11:10:20;99777.00;;;3.05;48.94
77381;BME280;66439;50.106;10.996;2023-02-28T11:12:38;99776.48;;;3.09;49.32
77381;BME280;66439;50.106;10.996;2023-02-28T11:14:56;99773.33;;;3.17;49.19
77381;BME280;66439;50.106;10.996;2023-02-28T11:17:14;99773.71;;;3.24;49.51
77381;BME280;66439;50.106;10.996;2023-02-28T11:19:27;99768.05;;;3.30;48.98
77381;BME280;66439;50.106;10.996;2023-02-28T11:21:34;99767.98;;;3.32;48.76
77381;BME280;66439;50.106;10.996;2023-02-28T11:23:41;99765.48;;;3.38;49.40
77381;BME280;66439;50.106;10.996;2023-02-28T11:25:50;99768.08;;;3.46;48.99
77381;BME280;66439;50.106;10.996;2023-02-28T11:27:56;99763.09;;;3.52;48.82
77381;BME280;66439;50.106;10.996;2023-02-28T11:30:00;99761.81;;;3.55;48.28
77381;BME280;66439;50.106;10.996;2023-02-28T11:34:25;99762.50;;;3.57;47.92
77381;BME280;66439;50.106;10.996;2023-02-28T11:36:31;99765.83;;;3.58;47.41
77381;BME280;66439;50.106;10.996;2023-02-28T11:38:36;99765.60;;;3.61;47.90
77381;BME280;66439;50.106;10.996;2023-02-28T11:47:44;99749.23;;;3.76;46.48
77381;BME280;66439;50.106;10.996;2023-02-28T11:52:06;99745.98;;;3.72;47.18
77381;BME280;66439;50.106;10.996;2023-02-28T11:56:54;99748.59;;;3.75;47.62